createdAt,value
2022-12-26T00:00:27.404Z,98473.13
2022-12-26T00:02:54.083Z,98481.75
2022-12-26T00:05:21.129Z,98483.44
2022-12-26T00:07:47.693Z,98485.31
2022-12-26T00:10:14.290Z,98487.00
2022-12-26T00:12:40.851Z,98478.91
2022-12-26T00:15:07.846Z,98479.84
2022-12-26T00:17:34.441Z,98470.97
2022-12-26T00:20:01.054Z,98484.09
2022-12-26T00:22:27.639Z,98475.34
2022-12-26T00:24:54.184Z,98488.28
2022-12-26T00:27:20.720Z,98492.88
2022-12-26T00:29:48.197Z,98486.81
2022-12-26T00:32:14.826Z,98488.56
2022-12-26T00:34:41.413Z,98484.94
2022-12-26T00:37:08.019Z,98478.94
2022-12-26T00:39:34.583Z,98473.75
2022-12-26T00:42:01.138Z,98478.25
2022-12-26T00:44:27.771Z,98485.31
2022-12-26T00:46:54.912Z,98474.69
2022-12-26T00:49:21.565Z,98478.25
2022-12-26T00:51:48.181Z,98494.50
2022-12-26T00:54:14.741Z,98487.63
2022-12-26T00:56:41.278Z,98507.72
2022-12-26T00:59:08.023Z,98510.72
2022-12-26T01:01:34.788Z,98516.44
2022-12-26T01:04:01.507Z,98515.03
2022-12-26T01:06:28.148Z,98515.22
2022-12-26T01:08:54.761Z,98507.81
2022-12-26T01:11:40.358Z,98526.31
2022-12-26T01:14:17.963Z,98506.09
2022-12-26T01:16:46.452Z,98506.88
2022-12-26T01:19:13.722Z,98507.72
2022-12-26T01:21:40.952Z,98532.22
2022-12-26T01:24:07.719Z,98533.44
2022-12-26T01:26:34.297Z,98547.50
2022-12-26T01:29:00.889Z,98534.72
2022-12-26T01:31:27.871Z,98525.63
2022-12-26T01:33:54.492Z,98509.78
2022-12-26T01:36:21.091Z,98510.13
2022-12-26T01:38:47.842Z,98522.59
2022-12-26T01:41:19.825Z,98519.34
2022-12-26T01:44:26.466Z,98535.47
2022-12-26T01:46:53.485Z,98543.00
2022-12-26T01:49:31.111Z,98549.09
2022-12-26T01:52:03.202Z,98551.91
2022-12-26T01:54:39.051Z,98545.03
2022-12-26T01:57:16.844Z,98539.50
2022-12-26T01:59:46.390Z,98525.81
2022-12-26T02:02:13.949Z,98526.66
2022-12-26T02:05:04.988Z,98546.28
2022-12-26T02:07:34.522Z,98555.13
2022-12-26T02:10:01.660Z,98543.38
2022-12-26T02:12:38.391Z,98540.00
2022-12-26T02:15:12.552Z,98537.28
2022-12-26T02:17:40.609Z,98533.59
2022-12-26T02:20:27.627Z,98520.47
2022-12-26T02:23:26.697Z,98511.19
2022-12-26T02:26:11.314Z,98494.50
2022-12-26T02:28:37.816Z,98482.47
2022-12-26T02:31:16.327Z,98531.75
2022-12-26T02:34:07.166Z,98520.38
2022-12-26T02:36:52.564Z,98505.34
2022-12-26T02:39:44.154Z,98507.03
2022-12-26T02:42:31.864Z,98529.47
2022-12-26T02:45:41.645Z,98535.13
2022-12-26T02:48:20.840Z,98539.78
2022-12-26T02:51:34.115Z,98549.66
2022-12-26T02:54:51.406Z,98550.78
2022-12-26T02:57:40.979Z,98544.63
2022-12-26T03:00:34.339Z,98549.66
2022-12-26T03:03:25.852Z,98554.25
2022-12-26T03:06:17.302Z,98546.19
2022-12-26T03:09:09.753Z,98530.22
2022-12-26T03:12:00.751Z,98537.63
2022-12-26T03:14:33.151Z,98539.72
2022-12-26T03:17:21.318Z,98537.47
2022-12-26T03:20:05.187Z,98533.03
2022-12-26T03:22:36.476Z,98539.50
2022-12-26T03:25:26.970Z,98539.59
2022-12-26T03:27:54.344Z,98541.09
2022-12-26T03:30:39.922Z,98547.66
2022-12-26T03:33:27.374Z,98539.78
2022-12-26T03:35:54.218Z,98547.00
2022-12-26T03:38:30.889Z,98545.63
2022-12-26T03:41:40.742Z,98560.13
2022-12-26T03:44:53.493Z,98558.75
2022-12-26T03:47:54.696Z,98548.69
2022-12-26T03:51:02.344Z,98543.25
2022-12-26T03:53:58.583Z,98538.34
2022-12-26T03:56:52.433Z,98533.75
2022-12-26T03:59:45.945Z,98536.66
2022-12-26T04:02:33.297Z,98542.66
2022-12-26T04:05:24.507Z,98548.13
2022-12-26T04:08:18.450Z,98551.69
2022-12-26T04:11:09.951Z,98554.50
2022-12-26T04:14:24.316Z,98554.66
2022-12-26T04:17:12.357Z,98556.56
2022-12-26T04:19:58.654Z,98550.56
2022-12-26T04:22:53.917Z,98534.00
2022-12-26T04:25:50.379Z,98535.16
2022-12-26T04:28:38.500Z,98526.59
2022-12-26T04:31:34.989Z,98527.00
2022-12-26T04:34:26.095Z,98520.22
2022-12-26T04:37:17.606Z,98538.63
2022-12-26T04:40:07.963Z,98528.09
2022-12-26T04:45:15.530Z,98525.13
2022-12-26T04:48:02.182Z,98530.47
2022-12-26T04:50:28.844Z,98539.50
2022-12-26T04:52:58.889Z,98535.50
2022-12-26T04:55:28.199Z,98533.47
2022-12-26T04:57:54.929Z,98532.16
2022-12-26T05:00:24.947Z,98526.88
2022-12-26T05:03:18.667Z,98534.03
2022-12-26T05:06:07.449Z,98534.03
2022-12-26T05:08:55.145Z,98517.09
2022-12-26T05:11:22.155Z,98518.16
2022-12-26T05:13:48.998Z,98533.09
2022-12-26T05:16:34.211Z,98540.16
2022-12-26T05:19:19.360Z,98553.56
2022-12-26T05:22:05.082Z,98551.97
2022-12-26T05:24:55.281Z,98545.03
2022-12-26T05:27:41.017Z,98559.19
2022-12-26T05:30:08.876Z,98557.50
2022-12-26T05:32:54.341Z,98559.59
2022-12-26T05:35:20.962Z,98557.72
2022-12-26T05:37:47.539Z,98551.72
2022-12-26T05:40:14.200Z,98549.81
2022-12-26T05:42:40.743Z,98539.44
2022-12-26T05:45:07.547Z,98539.91
2022-12-26T05:47:34.145Z,98551.03
2022-12-26T05:50:00.717Z,98549.56
2022-12-26T05:52:27.330Z,98555.88
2022-12-26T05:54:53.970Z,98562.91
2022-12-26T05:57:20.529Z,98560.34
2022-12-26T05:59:47.103Z,98556.63
2022-12-26T06:02:13.807Z,98556.63
2022-12-26T06:04:40.492Z,98547.13
2022-12-26T06:07:07.822Z,98550.88
2022-12-26T06:09:34.502Z,98547.50
2022-12-26T06:12:01.047Z,98540.47
2022-12-26T06:14:27.611Z,98556.34
2022-12-26T06:16:54.355Z,98575.75
2022-12-26T06:19:20.971Z,98573.03
2022-12-26T06:21:47.515Z,98575.75
2022-12-26T06:24:14.287Z,98579.22
2022-12-26T06:26:41.226Z,98580.91
2022-12-26T06:29:07.846Z,98595.09
2022-12-26T06:31:34.583Z,98607.28
2022-12-26T06:34:04.046Z,98597.81
2022-12-26T06:36:30.672Z,98594.63
2022-12-26T06:38:58.075Z,98599.94
2022-12-26T06:41:25.573Z,98611.41
2022-12-26T06:43:53.189Z,98608.28
2022-12-26T06:46:21.999Z,98610.38
2022-12-26T06:48:49.107Z,98604.34
2022-12-26T06:51:19.632Z,98625.38
2022-12-26T06:53:46.902Z,98630.63
2022-12-26T06:56:19.724Z,98626.31
2022-12-26T06:58:46.728Z,98644.97
2022-12-26T07:01:16.026Z,98635.66
2022-12-26T07:03:50.687Z,98636.78
2022-12-26T07:06:36.389Z,98628.16
2022-12-26T07:09:14.443Z,98635.09
2022-12-26T07:11:51.080Z,98624.66
2022-12-26T07:14:17.870Z,98620.53
2022-12-26T07:16:45.601Z,98609.53
2022-12-26T07:19:14.095Z,98615.66
2022-12-26T07:21:41.386Z,98612.28
2022-12-26T07:24:15.101Z,98600.91
2022-12-26T07:26:41.714Z,98600.16
2022-12-26T07:29:10.316Z,98641.41
2022-12-26T07:31:36.975Z,98642.16
2022-12-26T07:34:04.017Z,98628.28
2022-12-26T07:36:30.561Z,98633.72
2022-12-26T07:38:57.561Z,98645.06
2022-12-26T07:41:42.764Z,98647.81
2022-12-26T07:44:10.460Z,98656.63
2022-12-26T07:46:37.140Z,98650.63
2022-12-26T07:49:04.199Z,98649.69
2022-12-26T07:51:30.758Z,98650.63
2022-12-26T07:53:57.343Z,98645.56
2022-12-26T07:56:24.161Z,98644.88
2022-12-26T07:58:51.984Z,98634.47
2022-12-26T08:01:19.095Z,98628.19
2022-12-26T08:03:48.236Z,98623.22
2022-12-26T08:06:14.952Z,98630.00
2022-12-26T08:08:46.860Z,98637.25
2022-12-26T08:11:22.743Z,98636.06
2022-12-26T08:13:49.638Z,98658.19
2022-12-26T08:16:16.924Z,98658.38
2022-12-26T08:18:44.064Z,98664.44
2022-12-26T08:21:12.070Z,98667.94
2022-12-26T08:23:39.168Z,98668.88
2022-12-26T08:26:12.059Z,98673.00
2022-12-26T08:28:39.324Z,98673.06
2022-12-26T08:31:10.187Z,98681.06
2022-12-26T08:33:36.981Z,98686.31
2022-12-26T08:36:05.587Z,98690.38
2022-12-26T08:38:34.088Z,98700.00
2022-12-26T08:41:01.396Z,98687.75
2022-12-26T08:44:03.592Z,98682.38
2022-12-26T08:46:14.958Z,98687.47
2022-12-26T08:48:41.733Z,98689.25
2022-12-26T08:51:12.810Z,98690.00
2022-12-26T08:53:39.545Z,98697.78
2022-12-26T08:56:08.477Z,98701.13
2022-12-26T08:58:35.568Z,98710.69
2022-12-26T09:01:22.577Z,98721.19
2022-12-26T09:03:53.667Z,98725.50
2022-12-26T09:06:20.914Z,98726.25
2022-12-26T09:08:47.598Z,98740.25
2022-12-26T09:11:28.658Z,98728.75
2022-12-26T09:13:57.187Z,98726.00
2022-12-26T09:16:34.060Z,98731.94
2022-12-26T09:19:05.828Z,98728.38
2022-12-26T09:21:32.983Z,98727.44
2022-12-26T09:24:02.218Z,98727.38
2022-12-26T09:26:29.506Z,98725.41
2022-12-26T09:28:56.488Z,98723.81
2022-12-26T09:31:25.332Z,98720.31
2022-12-26T09:33:53.815Z,98726.25
2022-12-26T09:36:23.333Z,98748.88
2022-12-26T09:38:50.858Z,98755.84
2022-12-26T09:41:54.281Z,98761.22
2022-12-26T09:44:27.318Z,98747.16
2022-12-26T09:47:16.590Z,98756.75
2022-12-26T09:49:43.061Z,98755.97
2022-12-26T09:52:19.565Z,98749.03
2022-12-26T09:54:52.900Z,98755.16
2022-12-26T09:57:40.117Z,98766.50
2022-12-26T10:00:17.074Z,98775.03
2022-12-26T10:02:49.972Z,98767.84
2022-12-26T10:05:16.698Z,98770.47
2022-12-26T10:07:58.711Z,98777.16
2022-12-26T10:10:45.719Z,98781.50
2022-12-26T10:13:17.604Z,98778.75
2022-12-26T10:15:59.740Z,98777.94
2022-12-26T10:18:38.308Z,98770.81
2022-12-26T10:21:23.402Z,98767.25
2022-12-26T10:24:02.359Z,98767.31
2022-12-26T10:26:39.593Z,98776.88
2022-12-26T10:29:17.369Z,98778.69
2022-12-26T10:32:06.967Z,98785.63
2022-12-26T10:34:41.373Z,98777.50
2022-12-26T10:37:28.223Z,98787.25
2022-12-26T10:39:54.916Z,98798.50
2022-12-26T10:42:38.271Z,98801.91
2022-12-26T10:45:24.167Z,98802.66
2022-12-26T10:47:52.429Z,98807.91
2022-12-26T10:50:27.616Z,98797.47
2022-12-26T10:52:56.033Z,98810.53
2022-12-26T10:55:31.597Z,98813.72
2022-12-26T10:58:23.088Z,98800.34
2022-12-26T11:00:50.221Z,98796.53
2022-12-26T11:03:19.270Z,98807.53
2022-12-26T11:06:06.869Z,98796.75
2022-12-26T11:08:43.667Z,98808.59
2022-12-26T11:11:13.653Z,98801.56
2022-12-26T11:13:57.640Z,98785.13
2022-12-26T11:16:38.455Z,98792.25
2022-12-26T11:19:05.486Z,98796.31
2022-12-26T11:21:33.657Z,98795.63
2022-12-26T11:24:09.547Z,98803.69
2022-12-26T11:26:38.385Z,98800.31
2022-12-26T11:29:15.469Z,98788.88
2022-12-26T11:31:54.313Z,98798.34
2022-12-26T11:34:29.296Z,98788.69
2022-12-26T11:36:55.967Z,98788.31
2022-12-26T11:39:27.216Z,98782.97
2022-12-26T11:41:54.500Z,98786.53
2022-12-26T11:44:29.058Z,98783.06
2022-12-26T11:47:10.186Z,98796.19
2022-12-26T11:49:39.699Z,98791.06
2022-12-26T11:52:31.290Z,98778.06
2022-12-26T11:54:58.166Z,98781.91
2022-12-26T11:57:32.997Z,98782.75
2022-12-26T12:00:22.101Z,98783.69
2022-12-26T12:02:49.111Z,98789.63
2022-12-26T12:05:46.128Z,98780.03
2022-12-26T12:08:33.719Z,98780.63
2022-12-26T12:11:06.214Z,98765.78
2022-12-26T12:14:05.163Z,98771.78
2022-12-26T12:16:53.688Z,98762.69
2022-12-26T12:19:29.401Z,98768.16
2022-12-26T12:22:14.621Z,98761.09
2022-12-26T12:25:00.541Z,98768.78
2022-12-26T12:27:27.211Z,98766.63
2022-12-26T12:30:14.926Z,98767.41
2022-12-26T12:33:14.405Z,98761.38
2022-12-26T12:35:57.717Z,98763.66
2022-12-26T12:38:33.450Z,98768.34
2022-12-26T12:41:24.546Z,98765.63
2022-12-26T12:44:14.813Z,98761.56
2022-12-26T12:46:50.306Z,98777.59
2022-12-26T12:49:38.601Z,98777.78
2022-12-26T12:52:22.780Z,98770.59
2022-12-26T12:54:55.276Z,98771.53
2022-12-26T12:57:27.952Z,98779.41
2022-12-26T13:00:21.805Z,98763.91
2022-12-26T13:03:00.339Z,98765.66
2022-12-26T13:05:59.629Z,98763.03
2022-12-26T13:08:51.953Z,98764.16
2022-12-26T13:11:44.346Z,98762.59
2022-12-26T13:14:32.293Z,98766.91
2022-12-26T13:17:07.839Z,98754.50
2022-12-26T13:19:52.097Z,98757.97
2022-12-26T13:22:58.963Z,98758.06
2022-12-26T13:25:28.444Z,98751.03
2022-12-26T13:28:09.329Z,98749.31
2022-12-26T13:30:37.637Z,98746.97
2022-12-26T13:33:05.661Z,98739.00
2022-12-26T13:35:53.484Z,98741.63
2022-12-26T13:38:21.843Z,98736.44
2022-12-26T13:41:17.768Z,98729.50
2022-12-26T13:44:06.474Z,98728.94
2022-12-26T13:46:32.961Z,98726.22
2022-12-26T13:49:00.076Z,98720.78
2022-12-26T13:51:49.024Z,98727.16
2022-12-26T13:54:17.003Z,98736.81
2022-12-26T13:56:46.072Z,98733.25
2022-12-26T13:59:28.704Z,98735.81
2022-12-26T14:02:12.166Z,98724.25
2022-12-26T14:05:00.263Z,98729.88
2022-12-26T14:08:08.378Z,98728.25
2022-12-26T14:10:37.967Z,98727.63
2022-12-26T14:13:34.677Z,98719.88
2022-12-26T14:16:13.769Z,98719.31
2022-12-26T14:19:01.518Z,98722.88
2022-12-26T14:21:37.655Z,98736.28
2022-12-26T14:24:17.298Z,98728.59
2022-12-26T14:27:09.814Z,98733.09
2022-12-26T14:29:51.810Z,98730.72
2022-12-26T14:32:40.924Z,98732.75
2022-12-26T14:35:42.903Z,98732.84
2022-12-26T14:38:39.340Z,98737.53
2022-12-26T14:41:31.325Z,98741.50
2022-12-26T14:44:09.059Z,98756.19
2022-12-26T14:46:38.633Z,98755.66
2022-12-26T14:49:42.012Z,98748.19
2022-12-26T14:52:24.159Z,98758.88
2022-12-26T14:54:55.239Z,98740.22
2022-12-26T14:57:43.815Z,98743.84
2022-12-26T15:00:28.356Z,98742.25
2022-12-26T15:03:03.630Z,98739.81
2022-12-26T15:05:37.795Z,98745.13
2022-12-26T15:08:43.000Z,98762.28
2022-12-26T15:11:37.693Z,98752.59
2022-12-26T15:14:25.632Z,98768.56
2022-12-26T15:17:04.339Z,98772.13
2022-12-26T15:19:52.767Z,98779.47
2022-12-26T15:22:47.387Z,98771.75
2022-12-26T15:25:42.157Z,98774.63
2022-12-26T15:28:36.800Z,98772.59
2022-12-26T15:31:14.783Z,98774.44
2022-12-26T15:33:56.882Z,98769.13
2022-12-26T15:36:35.643Z,98776.06
2022-12-26T15:39:18.751Z,98781.50
2022-12-26T15:41:57.670Z,98778.00
2022-12-26T15:44:50.151Z,98790.59
2022-12-26T15:47:44.224Z,98812.16
2022-12-26T15:50:45.572Z,98803.13
2022-12-26T15:53:24.159Z,98806.63
2022-12-26T15:56:02.956Z,98804.16
2022-12-26T15:58:38.578Z,98813.72
2022-12-26T16:01:05.772Z,98808.13
2022-12-26T16:03:47.429Z,98795.78
2022-12-26T16:06:20.063Z,98813.44
2022-12-26T16:09:20.395Z,98914.44
2022-12-26T16:11:57.090Z,98905.06
2022-12-26T16:14:34.253Z,98896.41
2022-12-26T16:17:16.178Z,98904.38
2022-12-26T16:19:48.751Z,98893.09
2022-12-26T16:22:46.426Z,98877.72
2022-12-26T16:25:23.989Z,98878.66
2022-12-26T16:27:55.066Z,98884.91
2022-12-26T16:30:25.429Z,98893.91
2022-12-26T16:32:53.937Z,98899.41
2022-12-26T16:35:38.314Z,98895.66
2022-12-26T16:38:12.468Z,98894.16
2022-12-26T16:40:45.396Z,98901.22
2022-12-26T16:43:18.187Z,98906.47
2022-12-26T16:45:51.013Z,98907.06
2022-12-26T16:48:20.445Z,98899.41
2022-12-26T16:51:04.043Z,98904.72
2022-12-26T16:53:36.644Z,98910.28
2022-12-26T16:56:27.904Z,98922.25
2022-12-26T16:59:17.546Z,98920.66
2022-12-26T17:01:50.497Z,98931.06
2022-12-26T17:04:19.494Z,98934.28
2022-12-26T17:06:51.470Z,98942.59
2022-12-26T17:09:19.586Z,98952.19
2022-12-26T17:11:52.505Z,98949.06
2022-12-26T17:14:24.852Z,98948.91
2022-12-26T17:17:04.367Z,98956.91
2022-12-26T17:19:36.368Z,98964.78
2022-12-26T17:22:46.638Z,98963.25
2022-12-26T17:25:29.616Z,98977.06
2022-12-26T17:28:11.043Z,98976.72
2022-12-26T17:30:39.910Z,98976.66
2022-12-26T17:33:16.837Z,98974.34
2022-12-26T17:38:45.141Z,98971.69
2022-12-26T17:41:17.101Z,98971.53
2022-12-26T17:43:45.602Z,98977.97
2022-12-26T17:46:15.365Z,98981.59
2022-12-26T17:48:43.077Z,98978.91
2022-12-26T17:51:15.786Z,98987.25
2022-12-26T17:53:47.205Z,98979.63
2022-12-26T17:56:22.661Z,98991.88
2022-12-26T17:58:49.916Z,98987.75
2022-12-26T18:01:20.941Z,99002.63
2022-12-26T18:03:48.440Z,99001.59
2022-12-26T18:06:16.695Z,99001.16
2022-12-26T18:08:44.264Z,99006.41
2022-12-26T18:11:12.847Z,99008.16
2022-12-26T18:13:39.530Z,99010.94
2022-12-26T18:16:15.413Z,99011.78
2022-12-26T18:18:48.538Z,99017.00
2022-12-26T18:21:16.876Z,99025.75
2022-12-26T18:23:46.251Z,99028.44
2022-12-26T18:26:38.921Z,99021.56
2022-12-26T18:29:07.205Z,99023.81
2022-12-26T18:31:44.978Z,99025.63
2022-12-26T18:34:12.921Z,99027.34
2022-12-26T18:36:48.993Z,99034.47
2022-12-26T18:39:19.420Z,99051.22
2022-12-26T18:41:48.705Z,99054.78
2022-12-26T18:44:20.363Z,99062.56
2022-12-26T18:46:51.984Z,99065.53
2022-12-26T18:49:21.008Z,99063.13
2022-12-26T18:51:47.743Z,99070.22
2022-12-26T18:54:16.255Z,99087.81
2022-12-26T18:56:43.022Z,99086.19
2022-12-26T18:59:15.747Z,99085.50
2022-12-26T19:01:49.884Z,99101.38
2022-12-26T19:04:18.387Z,99097.97
2022-12-26T19:06:45.165Z,99115.41
2022-12-26T19:09:13.300Z,99116.53
2022-12-26T19:11:42.903Z,99134.00
2022-12-26T19:14:19.010Z,99129.63
2022-12-26T19:16:45.939Z,99139.22
2022-12-26T19:19:21.523Z,99136.75
2022-12-26T19:21:48.331Z,99148.09
2022-12-26T19:24:17.247Z,99150.59
2022-12-26T19:26:47.120Z,99165.44
2022-12-26T19:29:13.854Z,99159.22
2022-12-26T19:31:44.645Z,99169.75
2022-12-26T19:34:11.276Z,99176.66
2022-12-26T19:36:38.117Z,99185.44
2022-12-26T19:39:04.810Z,99193.38
2022-12-26T19:41:31.617Z,99203.91
2022-12-26T19:43:59.362Z,99210.84
2022-12-26T19:46:27.353Z,99224.00
2022-12-26T19:48:55.134Z,99228.41
2022-12-26T19:51:22.295Z,99229.41
2022-12-26T19:53:49.750Z,99242.63
2022-12-26T19:56:19.147Z,99249.94
2022-12-26T19:58:48.613Z,99257.81
2022-12-26T20:01:21.923Z,99265.72
2022-12-26T20:03:49.282Z,99266.53
2022-12-26T20:06:21.609Z,99267.53
2022-12-26T20:08:50.033Z,99269.31
2022-12-26T20:11:22.240Z,99270.91
2022-12-26T20:13:50.013Z,99281.38
2022-12-26T20:17:03.986Z,99282.41
2022-12-26T20:19:13.793Z,99292.94
2022-12-26T20:21:40.351Z,99290.41
2022-12-26T20:24:07.088Z,99299.22
2022-12-26T20:26:33.679Z,99288.09
2022-12-26T20:29:01.909Z,99302.94
2022-12-26T20:31:30.096Z,99309.06
2022-12-26T20:33:57.795Z,99316.31
2022-12-26T20:36:27.641Z,99322.44
2022-12-26T20:38:56.619Z,99332.13
2022-12-26T20:41:23.968Z,99341.84
2022-12-26T20:43:51.470Z,99351.56
2022-12-26T20:46:23.541Z,99358.66
2022-12-26T20:48:50.863Z,99358.84
2022-12-26T20:51:20.693Z,99358.97
2022-12-26T20:53:47.667Z,99377.19
2022-12-26T20:56:14.230Z,99381.59
2022-12-26T20:58:40.935Z,99390.53
2022-12-26T21:01:11.789Z,99395.00
2022-12-26T21:03:39.076Z,99401.16
2022-12-26T21:06:20.585Z,99409.03
2022-12-26T21:08:48.719Z,99422.06
2022-12-26T21:11:20.516Z,99424.81
2022-12-26T21:13:48.451Z,99427.56
2022-12-26T21:16:21.730Z,99433.81
2022-12-26T21:18:48.722Z,99436.44
2022-12-26T21:21:21.264Z,99439.84
2022-12-26T21:23:48.858Z,99449.59
2022-12-26T21:26:16.260Z,99449.69
2022-12-26T21:28:42.919Z,99444.78
2022-12-26T21:31:11.284Z,99446.38
2022-12-26T21:33:44.305Z,99453.34
2022-12-26T21:36:13.848Z,99459.59
2022-12-26T21:38:41.287Z,99450.06
2022-12-26T21:41:12.376Z,99467.53
2022-12-26T21:43:38.832Z,99463.16
2022-12-26T21:46:12.609Z,99470.13
2022-12-26T21:48:39.457Z,99484.09
2022-12-26T21:51:09.447Z,99485.06
2022-12-26T21:53:36.287Z,99479.16
2022-12-26T21:56:07.419Z,99480.06
2022-12-26T21:58:53.958Z,99487.13
2022-12-26T22:01:21.961Z,99491.50
2022-12-26T22:04:07.621Z,99493.25
2022-12-26T22:06:34.231Z,99492.50
2022-12-26T22:09:01.729Z,99496.84
2022-12-26T22:11:46.976Z,99499.50
2022-12-26T22:14:13.623Z,99503.09
2022-12-26T22:16:40.553Z,99505.69
2022-12-26T22:19:08.142Z,99505.69
2022-12-26T22:21:35.418Z,99513.56
2022-12-26T22:24:01.978Z,99514.50
2022-12-26T22:26:29.798Z,99519.66
2022-12-26T22:28:57.659Z,99523.16
2022-12-26T22:31:36.230Z,99530.91
2022-12-26T22:34:14.873Z,99536.22
2022-12-26T22:36:42.314Z,99541.38
2022-12-26T22:39:12.894Z,99550.09
2022-12-26T22:41:39.610Z,99551.94
2022-12-26T22:44:06.283Z,99546.75
2022-12-26T22:46:32.904Z,99549.44
2022-12-26T22:48:59.593Z,99562.38
2022-12-26T22:51:26.835Z,99564.13
2022-12-26T22:53:57.476Z,99566.78
2022-12-26T22:56:24.168Z,99567.69
2022-12-26T22:59:00.630Z,99566.81
2022-12-26T23:01:27.933Z,99572.88
2022-12-26T23:03:55.102Z,99569.41
2022-12-26T23:06:27.606Z,99566.84
2022-12-26T23:08:56.936Z,99568.66
2022-12-26T23:11:30.375Z,99577.34
2022-12-26T23:14:01.808Z,99581.66
2022-12-26T23:16:56.165Z,99579.00
2022-12-26T23:19:57.907Z,99583.38
2022-12-26T23:22:24.609Z,99595.47
2022-12-26T23:24:51.137Z,99600.63
2022-12-26T23:27:36.388Z,99603.19
2022-12-26T23:30:20.152Z,99610.06
2022-12-26T23:32:50.525Z,99602.38
2022-12-26T23:35:18.114Z,99597.13
2022-12-26T23:37:44.690Z,99598.88
2022-12-26T23:40:13.686Z,99598.06
2022-12-26T23:42:40.340Z,99601.59
2022-12-26T23:45:07.937Z,99599.03
2022-12-26T23:47:39.025Z,99608.59
2022-12-26T23:50:06.367Z,99603.50
2022-12-26T23:52:33.414Z,99607.81
2022-12-26T23:55:00.010Z,99613.88
2022-12-26T23:57:26.856Z,99615.66
2022-12-26T23:59:53.608Z,99616.53
